YPNC weather

Pine Creek Airport
Northern Territory, Australia

Public forecast

Using degrees Celsius for public forecast. Weather courtesy of forecast.io.

Closest aviation weather report (METAR) to Pine Creek Airport

Closest report is Tindal Airport, 52.1 nm (96.4 km) SE. Retrieved 2020/05/29 06:30 UTC (25 minutes ago):

YPTN 290630Z AUTO 11010KT 9999 // NCD 32/09 Q1013 RF000/0000

Closest aviation forecast (TAF) to Pine Creek Airport

Forecast is more than 6 hours old.

Closest forecast is Tindal Airport, 52.1 nm (96.4 km) SE. Retrieved 2020-05-29 00:00 UTC (7 hours ago):

TAF YPTN 282308Z 2900/3000 11010KT CAVOK